createdAt,value
2018-04-14T00:01:32.171Z,13.13
2018-04-14T00:06:41.031Z,14.57
2018-04-14T00:11:43.886Z,13.18
2018-04-14T00:16:47.516Z,13.20
2018-04-14T00:21:54.143Z,13.90
2018-04-14T00:26:57.529Z,14.75
2018-04-14T00:32:00.416Z,17.20
2018-04-14T00:37:04.091Z,15.73
2018-04-14T00:42:12.085Z,14.70
2018-04-14T00:47:19.707Z,14.90
2018-04-14T00:52:22.688Z,17.62
2018-04-14T00:57:32.722Z,17.48
2018-04-14T01:02:41.126Z,19.83
2018-04-14T01:07:49.937Z,18.57
2018-04-14T01:12:53.848Z,16.25
2018-04-14T01:17:57.322Z,18.40
2018-04-14T01:23:03.095Z,16.60
2018-04-14T01:28:06.921Z,16.83
2018-04-14T01:33:10.226Z,16.73
2018-04-14T01:38:21.079Z,15.80
2018-04-14T01:43:24.115Z,13.20
2018-04-14T01:48:27.038Z,15.85
2018-04-14T01:53:31.787Z,18.30
2018-04-14T01:58:40.029Z,19.50
2018-04-14T02:03:54.812Z,16.95
2018-04-14T02:09:05.356Z,17.05
2018-04-14T02:14:09.665Z,21.08
2018-04-14T02:19:20.281Z,18.40
2018-04-14T02:24:31.219Z,19.52
2018-04-14T02:29:42.239Z,17.70
2018-04-14T02:34:50.723Z,18.02
2018-04-14T02:40:07.192Z,19.67
2018-04-14T02:45:21.195Z,33.47
2018-04-14T02:50:24.260Z,18.00
2018-04-14T02:55:28.372Z,35.83
2018-04-14T03:00:37.136Z,21.65
2018-04-14T03:05:48.010Z,17.30
2018-04-14T03:10:55.403Z,16.73
2018-04-14T03:16:08.600Z,17.90
2018-04-14T03:21:14.909Z,19.50
2018-04-14T03:26:18.614Z,20.10
2018-04-14T03:31:22.025Z,19.80
2018-04-14T03:36:28.374Z,15.57
2018-04-14T03:41:37.557Z,15.30
2018-04-14T03:46:43.866Z,15.85
2018-04-14T03:51:47.055Z,15.88
2018-04-14T03:56:50.021Z,18.03
2018-04-14T04:01:54.980Z,22.30
2018-04-14T04:06:59.678Z,17.02
2018-04-14T04:12:03.821Z,17.13
2018-04-14T04:17:08.128Z,17.02
2018-04-14T04:22:23.434Z,30.90
2018-04-14T04:27:43.899Z,21.87
2018-04-14T04:32:48.318Z,21.60
2018-04-14T04:37:54.136Z,41.20
2018-04-14T04:42:57.583Z,22.00
2018-04-14T04:48:08.107Z,28.53
2018-04-14T04:53:11.134Z,30.27
2018-04-14T04:58:16.636Z,32.85
2018-04-14T05:03:19.636Z,25.27
2018-04-14T05:08:22.602Z,24.98
2018-04-14T05:13:31.596Z,43.38
2018-04-14T05:18:41.281Z,23.57
2018-04-14T05:23:45.282Z,22.07
2018-04-14T05:28:48.368Z,56.25
2018-04-14T05:34:01.465Z,36.65
2018-04-14T05:39:06.357Z,21.60
2018-04-14T05:44:10.218Z,21.55
2018-04-14T05:49:17.522Z,21.77
2018-04-14T05:54:21.287Z,19.50
2018-04-14T05:59:24.308Z,20.33
2018-04-14T06:04:27.263Z,21.20
2018-04-14T06:09:30.202Z,27.03
2018-04-14T06:14:33.797Z,25.45
2018-04-14T06:19:37.300Z,25.08
2018-04-14T06:24:41.741Z,23.92
2018-04-14T06:29:45.840Z,24.55
2018-04-14T06:34:50.182Z,22.17
2018-04-14T06:39:54.892Z,20.65
2018-04-14T06:44:58.460Z,20.98
2018-04-14T06:50:02.831Z,21.73
2018-04-14T06:55:06.298Z,18.30
2018-04-14T07:00:10.699Z,18.62
2018-04-14T07:20:42.216Z,18.50
2018-04-14T07:25:45.905Z,17.10
2018-04-14T07:30:49.418Z,18.50
2018-04-14T07:35:53.062Z,19.17
2018-04-14T07:40:56.229Z,17.42
2018-04-14T07:45:59.636Z,14.70
2018-04-14T07:51:02.650Z,13.75
2018-04-14T07:56:05.631Z,13.70
2018-04-14T08:01:12.068Z,12.93
2018-04-14T08:06:15.257Z,10.60
2018-04-14T08:11:21.756Z,9.60
2018-04-14T08:16:24.911Z,8.70
2018-04-14T08:21:28.167Z,8.20
2018-04-14T08:31:43.728Z,8.43
2018-04-14T08:36:55.539Z,7.20
2018-04-14T08:42:02.627Z,8.02
2018-04-14T08:47:07.174Z,5.90
2018-04-14T08:52:10.377Z,5.70
2018-04-14T08:57:15.344Z,6.20
2018-04-14T09:02:19.448Z,5.77
2018-04-14T09:07:34.400Z,5.30
2018-04-14T09:12:38.303Z,6.00
2018-04-14T09:17:41.313Z,4.90
2018-04-14T09:22:49.104Z,5.32
2018-04-14T09:27:53.154Z,5.20
2018-04-14T09:32:56.074Z,5.50
2018-04-14T09:38:11.127Z,5.45
2018-04-14T09:43:16.976Z,4.40
2018-04-14T09:48:20.348Z,5.30
2018-04-14T09:53:25.650Z,6.13
2018-04-14T09:58:28.511Z,4.85
2018-04-14T10:03:31.785Z,4.50
2018-04-14T10:08:34.699Z,4.47
2018-04-14T10:13:37.565Z,4.30
2018-04-14T10:18:42.705Z,4.60
2018-04-14T10:23:46.484Z,4.25
2018-04-14T10:28:51.111Z,3.80
2018-04-14T10:33:55.795Z,3.57
2018-04-14T10:39:01.579Z,3.00
2018-04-14T10:44:08.520Z,2.42
2018-04-14T10:49:21.849Z,2.70
2018-04-14T10:54:36.512Z,2.30
2018-04-14T10:59:48.903Z,2.13
2018-04-14T11:04:53.915Z,2.30
2018-04-14T11:15:41.185Z,2.78
2018-04-14T11:20:55.905Z,2.15
2018-04-14T11:26:01.677Z,2.20
2018-04-14T11:31:05.609Z,2.05
2018-04-14T11:36:10.880Z,3.12
2018-04-14T11:41:20.042Z,2.08
2018-04-14T11:46:27.680Z,1.80
2018-04-14T11:51:38.668Z,2.78
2018-04-14T11:56:46.901Z,2.50
2018-04-14T12:01:52.275Z,2.00
2018-04-14T12:06:57.956Z,1.83
2018-04-14T12:12:03.307Z,1.50
2018-04-14T12:17:07.443Z,2.17
2018-04-14T12:22:12.501Z,1.30
2018-04-14T12:27:18.244Z,1.75
2018-04-14T12:32:21.120Z,1.43
2018-04-14T12:37:25.515Z,2.47
2018-04-14T12:42:28.989Z,3.60
2018-04-14T12:47:33.718Z,1.87
2018-04-14T12:52:43.847Z,1.50
2018-04-14T12:57:47.492Z,1.55
2018-04-14T13:02:51.229Z,1.55
2018-04-14T13:07:56.681Z,1.70
2018-04-14T13:13:00.093Z,1.30
2018-04-14T13:18:02.926Z,1.80
2018-04-14T13:23:06.036Z,1.20
2018-04-14T13:28:09.310Z,1.30
2018-04-14T13:33:12.535Z,1.30
2018-04-14T13:38:15.914Z,2.40
2018-04-14T13:43:19.512Z,1.20
2018-04-14T13:48:22.856Z,1.70
2018-04-14T13:53:26.123Z,1.62
2018-04-14T13:58:31.320Z,1.70
2018-04-14T14:03:34.755Z,1.50
2018-04-14T14:08:37.810Z,1.65
2018-04-14T14:13:40.636Z,1.17
2018-04-14T14:18:45.071Z,1.37
2018-04-14T14:23:48.522Z,1.60
2018-04-14T14:28:53.896Z,2.40
2018-04-14T14:33:57.615Z,2.45
2018-04-14T14:39:02.070Z,1.40
2018-04-14T14:44:08.864Z,2.60
2018-04-14T14:49:12.231Z,2.08
2018-04-14T14:54:21.149Z,2.00
2018-04-14T14:59:26.453Z,1.70
2018-04-14T15:04:32.899Z,1.35
2018-04-14T15:09:36.061Z,1.83
2018-04-14T15:14:39.441Z,1.70
2018-04-14T15:19:42.803Z,2.30
2018-04-14T15:24:45.710Z,7.30
2018-04-14T15:29:48.565Z,51.57
2018-04-14T15:34:51.968Z,3.08
2018-04-14T15:39:55.394Z,51.97
2018-04-14T15:44:59.447Z,2.00
2018-04-14T15:50:02.825Z,2.93
2018-04-14T15:55:05.967Z,4.20
2018-04-14T16:00:09.410Z,2.00
2018-04-14T16:05:12.314Z,1.52
2018-04-14T16:10:15.257Z,1.80
2018-04-14T16:15:18.292Z,1.40
2018-04-14T16:20:21.736Z,1.73
2018-04-14T16:25:25.276Z,1.87
2018-04-14T16:30:28.752Z,1.80
2018-04-14T16:35:32.177Z,2.12
2018-04-14T16:40:35.952Z,1.70
2018-04-14T16:45:39.610Z,1.23
2018-04-14T16:50:42.630Z,1.40
2018-04-14T16:55:58.258Z,1.67
2018-04-14T17:01:02.040Z,7.05
2018-04-14T17:06:10.171Z,2.03
2018-04-14T17:11:13.424Z,2.92
2018-04-14T17:16:20.892Z,2.10
2018-04-14T17:21:32.672Z,1.90
2018-04-14T17:26:37.301Z,1.70
2018-04-14T17:31:46.449Z,43.83
2018-04-14T17:36:50.590Z,66.28
2018-04-14T17:41:56.554Z,80.95
2018-04-14T17:47:10.181Z,16.23
2018-04-14T17:52:15.064Z,20.40
2018-04-14T17:57:18.804Z,114.33
2018-04-14T18:02:23.410Z,52.95
2018-04-14T18:07:31.495Z,22.42
2018-04-14T18:12:40.191Z,12.80
2018-04-14T18:17:43.461Z,6.70
2018-04-14T18:22:47.157Z,5.10
2018-04-14T18:27:50.143Z,5.37
2018-04-14T18:32:53.090Z,6.10
2018-04-14T18:37:56.620Z,5.40
2018-04-14T18:43:00.359Z,5.20
2018-04-14T18:48:06.140Z,4.78
2018-04-14T18:53:11.596Z,6.70
2018-04-14T18:58:17.358Z,7.40
2018-04-14T19:03:24.473Z,7.62
2018-04-14T19:08:28.005Z,6.50
2018-04-14T19:13:33.182Z,6.85
2018-04-14T19:18:37.518Z,6.40
2018-04-14T19:23:43.525Z,9.18
2018-04-14T19:28:56.825Z,4.80
2018-04-14T19:34:05.808Z,3.20
2018-04-14T19:39:14.438Z,4.40
2018-04-14T19:49:33.721Z,8.38
2018-04-14T19:54:39.459Z,8.25
2018-04-14T19:59:48.265Z,6.83
2018-04-14T20:04:55.832Z,6.70
2018-04-14T20:10:10.614Z,6.55
2018-04-14T20:15:20.315Z,6.60
2018-04-14T20:20:30.108Z,4.72
2018-04-14T20:25:33.347Z,5.80
2018-04-14T20:30:38.737Z,6.97
2018-04-14T20:35:48.670Z,13.48
2018-04-14T20:41:02.570Z,15.20
2018-04-14T20:46:05.966Z,11.23
2018-04-14T20:51:08.858Z,9.35
2018-04-14T20:56:12.567Z,6.80
2018-04-14T21:01:16.249Z,4.70
2018-04-14T21:06:19.197Z,4.50
2018-04-14T21:11:28.194Z,5.00
2018-04-14T21:16:41.552Z,4.55
2018-04-14T21:21:44.613Z,5.95
2018-04-14T21:26:47.944Z,5.50
2018-04-14T21:31:58.288Z,8.40
2018-04-14T21:37:05.704Z,11.27
2018-04-14T21:42:14.868Z,10.38
2018-04-14T21:47:19.859Z,7.70
2018-04-14T21:52:23.272Z,7.00
2018-04-14T21:57:41.219Z,8.30
2018-04-14T22:02:53.876Z,7.30
2018-04-14T22:08:02.471Z,6.20
2018-04-14T22:13:05.982Z,6.10
2018-04-14T22:18:10.001Z,5.83
2018-04-14T22:23:15.017Z,5.90
2018-04-14T22:28:19.499Z,6.25
2018-04-14T22:34:02.172Z,6.90
2018-04-14T22:39:09.684Z,7.75
2018-04-14T22:44:14.231Z,7.32
2018-04-14T22:49:37.821Z,6.62
2018-04-14T23:00:17.329Z,5.25
2018-04-14T23:05:21.524Z,5.55
2018-04-14T23:16:13.764Z,4.78
2018-04-14T23:26:38.334Z,6.20
2018-04-14T23:31:45.632Z,5.00
2018-04-14T23:36:50.449Z,7.85
2018-04-14T23:41:54.038Z,5.10
2018-04-14T23:47:00.511Z,4.50
2018-04-14T23:52:04.781Z,5.35
2018-04-14T23:57:09.507Z,5.07
